Alma, KS

8:52 PM CDT on October 25, 2014 (GMT -0500)
WTC - Paxico | Change Station
CLOSE
Current Station
Personal Weather Station
Location: Paxico, KS
Elevation: 1007 ft
Nearby Weather Stations

Elev 1007 ft 39.07 °N, 96.17 °W | Updated 13 seconds ago

Clear
Clear
67.3 °F
Feels Like 67.3 °F
N
0.0
Wind Variable Wind from ESE
Gusts 0.0 mph

Today
High -- | Low -- °F
--% Chance of Precip.
Yesterday
High -- | Low -- °F
Precip. -- in
7:44 AM 6:32 PM
Waxing Crescent, 5% visible
Pressure 29.96 in
Visibility 10.0 miles
Clouds Clear
Dew Point 61 °F
Humidity 79%
Rainfall 0.00 in
Snow Depth Not available.
UV 0 out of 12
Pollen 2.90 out of 12
Air Quality Not available.
Flu Activity No Activity
METAR KMHK 260052Z 06007KT 10SM CLR 22/16 A2996 RMK AO2 SLP144 T02170156

More Conditions Fewer Conditions

Pressure 29.96 in
Visibility 10.0 miles
Clouds Clear
Dew Point 61 °F
Humidity 79%
Rainfall 0.00 in
Snow Depth Not available.
UV 0 out of 12
Pollen 2.90 out of 12
Air Quality Not available.
Flu Activity No Activity
METAR KMHK 260052Z 06007KT 10SM CLR 22/16 A2996 RMK AO2 SLP144 T02170156

More Conditions Fewer Conditions

10-Day Weather Forecast

Almanac

Astronomy

Oct. 25, 2014 Rise Set
Actual Time 7:44 AM CDT 6:32 PM CDT
Civil Twilight 7:17 AM CDT 6:59 PM CDT
Nautical Twilight 6:46 AM CDT 7:31 PM CDT
Astronomical Twilight 6:15 AM CDT 8:02 PM CDT
Moon 9:24 AM CDT (10/25) 7:57 PM CDT (10/25)
Length of Visible Light 11h 42m
Length of Day
10h 47m
Tomorrow will be 2m 20s shorter.
Waxing Crescent, 5% of the Moon is Illuminated
Today
Waxing Crescent
Oct 30
First Quarter
Nov 6
Full
Nov 14
Last Quarter
Nov 22
New

Today's Extremes

State Highs State Lows

Community

WunderPhotos

Upload Photos

1,765,071 photos uploaded!

Nearby

Snow Depth

Station Depth Elevation
No new snow has been reported.

Earthquake Activity

City Distance Mag. Time & Date
Anthony, Kansas 159 miles 2.7 4:24 AM CDT
2014-10-24
Anthony, Kansas 162 miles 2.7 9:47 PM CDT
2014-10-22
Anthony, Kansas 160 miles 3.3 6:48 PM CDT
2014-10-22
Minimum magnitude displayed is 2.5.

Coastal Water Temperatures

Place Temperature
No Stations Reporting

Nearby Weather Stations